createdAt,value
2023-04-01T00:00:14.949Z,56.89
2023-04-01T00:03:17.563Z,56.67
2023-04-01T00:06:20.067Z,57.13
2023-04-01T00:09:22.176Z,57.38
2023-04-01T00:12:26.110Z,57.11
2023-04-01T00:15:28.306Z,57.14
2023-04-01T00:18:30.811Z,57.60
2023-04-01T00:21:33.280Z,57.55
2023-04-01T00:24:35.668Z,57.59
2023-04-01T00:27:37.973Z,57.57
2023-04-01T00:30:40.265Z,58.53
2023-04-01T00:33:42.522Z,57.94
2023-04-01T00:36:44.959Z,58.32
2023-04-01T00:39:47.587Z,58.27
2023-04-01T00:42:49.864Z,58.28
2023-04-01T00:45:52.057Z,58.64
2023-04-01T00:48:56.478Z,58.31
2023-04-01T00:52:01.339Z,58.55
2023-04-01T00:55:06.247Z,58.56
2023-04-01T00:58:11.316Z,58.75
2023-04-01T01:01:13.724Z,58.59
2023-04-01T01:04:31.254Z,58.09
2023-04-01T01:07:42.860Z,58.23
2023-04-01T01:10:50.026Z,58.45
2023-04-01T01:14:37.169Z,58.53
2023-04-01T01:18:01.196Z,58.68
2023-04-01T01:21:35.753Z,58.52
2023-04-01T01:24:41.121Z,59.08
2023-04-01T01:27:50.688Z,58.91
2023-04-01T01:31:03.443Z,58.77
2023-04-01T01:34:33.832Z,58.79
2023-04-01T01:37:36.481Z,58.57
2023-04-01T01:40:41.088Z,58.11
2023-04-01T01:43:45.938Z,58.47
2023-04-01T01:46:50.793Z,58.67
2023-04-01T01:49:54.275Z,58.47
2023-04-01T01:53:07.177Z,58.31
2023-04-01T01:56:13.563Z,58.21
2023-04-01T01:59:17.183Z,58.20
2023-04-01T02:02:20.882Z,58.42
2023-04-01T02:05:26.079Z,58.81
2023-04-01T02:08:37.531Z,58.77
2023-04-01T02:11:46.222Z,58.50
2023-04-01T02:14:53.303Z,58.75
2023-04-01T02:17:59.159Z,58.27
2023-04-01T02:21:01.729Z,58.50
2023-04-01T02:24:07.467Z,58.54
2023-04-01T02:27:10.971Z,58.44
2023-04-01T02:30:14.608Z,58.68
2023-04-01T02:33:17.775Z,58.62
2023-04-01T02:36:20.035Z,58.54
2023-04-01T02:39:22.549Z,58.75
2023-04-01T02:42:24.732Z,58.45
2023-04-01T02:45:26.864Z,58.58
2023-04-01T02:48:29.485Z,58.23
2023-04-01T02:51:32.672Z,58.13
2023-04-01T02:54:35.419Z,58.36
2023-04-01T02:57:37.557Z,57.97
2023-04-01T03:00:39.755Z,58.09
2023-04-01T03:03:41.884Z,57.96
2023-04-01T03:06:44.084Z,56.43
2023-04-01T03:09:46.203Z,55.86
2023-04-01T03:12:48.319Z,56.00
2023-04-01T03:15:50.723Z,55.74
2023-04-01T03:18:54.338Z,55.35
2023-04-01T03:21:57.349Z,55.39
2023-04-01T03:25:00.145Z,54.63
2023-04-01T03:28:03.273Z,54.52
2023-04-01T03:31:06.138Z,54.87
2023-04-01T03:37:33.282Z,53.92
2023-04-01T03:40:38.341Z,54.29
2023-04-01T03:43:44.620Z,54.02
2023-04-01T03:46:47.318Z,54.26
2023-04-01T03:49:51.038Z,54.33
2023-04-01T03:52:53.229Z,54.69
2023-04-01T03:55:55.676Z,54.53
2023-04-01T03:59:01.148Z,54.02
2023-04-01T04:02:03.547Z,54.63
2023-04-01T04:05:07.936Z,54.77
2023-04-01T04:08:10.719Z,54.04
2023-04-01T04:11:13.111Z,54.37
2023-04-01T04:14:17.694Z,54.17
2023-04-01T04:17:21.193Z,54.39
2023-04-01T04:20:23.485Z,54.33
2023-04-01T04:23:25.763Z,54.64
2023-04-01T04:26:28.227Z,54.79
2023-04-01T04:29:35.774Z,54.39
2023-04-01T04:32:42.395Z,54.19
2023-04-01T04:35:46.672Z,54.26
2023-04-01T04:38:49.358Z,54.28
2023-04-01T04:41:51.637Z,54.54
2023-04-01T04:44:56.864Z,53.93
2023-04-01T04:47:59.746Z,53.80
2023-04-01T04:51:02.478Z,53.95
2023-04-01T04:54:05.170Z,53.65
2023-04-01T04:57:36.520Z,53.60
2023-04-01T05:00:38.795Z,53.40
2023-04-01T05:03:46.105Z,53.75
2023-04-01T05:06:48.336Z,53.62
2023-04-01T05:09:52.239Z,53.45
2023-04-01T05:12:54.540Z,53.47
2023-04-01T05:15:58.510Z,54.02
2023-04-01T05:19:01.306Z,54.02
2023-04-01T05:22:03.685Z,53.99
2023-04-01T05:25:06.453Z,54.67
2023-04-01T05:28:08.931Z,54.59
2023-04-01T05:31:11.478Z,54.62
2023-04-01T05:34:15.986Z,54.62
2023-04-01T05:37:18.496Z,54.52
2023-04-01T05:40:21.456Z,55.10
2023-04-01T05:43:23.707Z,54.65
2023-04-01T05:46:27.206Z,54.90
2023-04-01T05:49:34.959Z,54.52
2023-04-01T05:52:39.077Z,54.37
2023-04-01T05:55:41.296Z,54.18
2023-04-01T05:58:43.449Z,54.09
2023-04-01T06:01:45.722Z,53.05
2023-04-01T06:04:48.548Z,52.74
2023-04-01T06:08:02.192Z,51.60
2023-04-01T06:11:14.580Z,50.92
2023-04-01T06:14:54.990Z,50.35
2023-04-01T06:18:31.274Z,50.35
2023-04-01T06:21:56.366Z,49.97
2023-04-01T06:25:12.159Z,49.33
2023-04-01T06:28:17.524Z,49.46
2023-04-01T06:31:46.093Z,48.87
2023-04-01T06:35:01.437Z,48.66
2023-04-01T06:38:19.387Z,48.50
2023-04-01T06:41:36.745Z,48.42
2023-04-01T06:45:00.509Z,48.04
2023-04-01T06:48:43.240Z,47.74
2023-04-01T06:52:21.095Z,47.45
2023-04-01T06:55:50.936Z,47.41
2023-04-01T06:59:16.886Z,47.58
2023-04-01T07:02:32.361Z,47.08
2023-04-01T07:05:36.794Z,47.65
2023-04-01T07:08:41.800Z,47.59
2023-04-01T07:11:44.291Z,47.38
2023-04-01T07:15:25.993Z,47.04
2023-04-01T07:18:51.794Z,46.98
2023-04-01T07:22:00.065Z,46.82
2023-04-01T07:25:16.165Z,47.17
2023-04-01T07:32:10.362Z,45.95
2023-04-01T07:35:31.017Z,46.04
2023-04-01T07:38:45.383Z,45.82
2023-04-01T07:41:57.843Z,45.30
2023-04-01T07:45:17.525Z,45.47
2023-04-01T07:48:29.064Z,44.85
2023-04-01T07:51:55.231Z,44.89
2023-04-01T07:55:47.755Z,44.78
2023-04-01T07:59:31.547Z,44.68
2023-04-01T08:03:04.866Z,44.85
2023-04-01T08:06:28.528Z,44.55
2023-04-01T08:09:46.158Z,44.14
2023-04-01T08:13:22.781Z,43.94
2023-04-01T08:17:11.411Z,43.56
2023-04-01T08:20:37.588Z,43.61
2023-04-01T08:23:48.636Z,43.40
2023-04-01T08:26:55.204Z,43.72
2023-04-01T08:30:18.285Z,43.74
2023-04-01T08:33:23.732Z,43.49
2023-04-01T08:36:34.419Z,43.54
2023-04-01T08:40:35.881Z,43.25
2023-04-01T08:43:49.508Z,43.36
2023-04-01T08:47:21.709Z,43.29
2023-04-01T08:50:47.618Z,43.24
2023-04-01T08:54:42.975Z,43.26
2023-04-01T08:58:00.149Z,43.00
2023-04-01T09:01:39.410Z,43.39
2023-04-01T09:05:21.955Z,43.26
2023-04-01T09:08:48.705Z,43.21
2023-04-01T09:12:28.891Z,43.23
2023-04-01T09:15:51.677Z,43.12
2023-04-01T09:19:08.982Z,42.78
2023-04-01T09:22:28.481Z,42.81
2023-04-01T09:25:55.302Z,42.64
2023-04-01T09:29:00.875Z,42.81
2023-04-01T09:32:19.496Z,42.84
2023-04-01T09:35:31.067Z,42.61
2023-04-01T09:38:50.999Z,42.34
2023-04-01T09:41:59.314Z,42.25
2023-04-01T09:45:45.450Z,42.31
2023-04-01T09:49:01.531Z,42.33
2023-04-01T09:52:26.445Z,42.49
2023-04-01T09:55:51.515Z,42.55
2023-04-01T09:59:12.630Z,43.08
2023-04-01T10:03:06.453Z,42.99
2023-04-01T10:06:34.322Z,43.07
2023-04-01T10:10:05.246Z,43.36
2023-04-01T10:13:26.573Z,43.55
2023-04-01T10:16:43.713Z,43.61
2023-04-01T10:19:49.210Z,43.51
2023-04-01T10:23:04.756Z,43.63
2023-04-01T10:26:41.266Z,43.86
2023-04-01T10:30:26.021Z,43.69
2023-04-01T10:33:37.659Z,43.84
2023-04-01T10:36:53.459Z,43.73
2023-04-01T10:40:37.045Z,43.94
2023-04-01T10:44:23.638Z,44.10
2023-04-01T10:47:44.564Z,44.04
2023-04-01T10:51:17.880Z,44.03
2023-04-01T10:54:32.424Z,44.15
2023-04-01T10:58:37.022Z,44.12
2023-04-01T11:02:29.918Z,43.89
2023-04-01T11:06:23.028Z,43.93
2023-04-01T11:10:03.156Z,43.68
2023-04-01T11:13:21.163Z,43.85
2023-04-01T11:17:05.501Z,43.83
2023-04-01T11:20:11.084Z,43.59
2023-04-01T11:23:16.302Z,43.80
2023-04-01T11:26:46.372Z,43.70
2023-04-01T11:30:24.088Z,43.69
2023-04-01T11:33:37.954Z,43.55
2023-04-01T11:36:53.648Z,43.53
2023-04-01T11:40:10.012Z,43.19
2023-04-01T11:43:49.603Z,43.07
2023-04-01T11:47:20.521Z,42.85
2023-04-01T11:51:00.270Z,42.79
2023-04-01T11:54:16.074Z,43.11
2023-04-01T11:57:49.351Z,43.55
2023-04-01T12:01:01.246Z,43.35
2023-04-01T12:04:15.620Z,43.52
2023-04-01T12:07:24.021Z,43.61
2023-04-01T12:10:29.873Z,43.43
2023-04-01T12:13:42.021Z,43.79
2023-04-01T12:16:44.268Z,43.51
2023-04-01T12:19:54.014Z,43.40
2023-04-01T12:23:23.704Z,43.39
2023-04-01T12:26:58.047Z,43.04
2023-04-01T12:30:39.052Z,42.30
2023-04-01T12:34:02.940Z,42.50
2023-04-01T12:37:53.332Z,42.42
2023-04-01T12:41:11.925Z,41.72
2023-04-01T12:44:41.529Z,41.87
2023-04-01T12:48:10.954Z,41.23
2023-04-01T12:51:22.125Z,41.01
2023-04-01T12:54:55.336Z,40.35
2023-04-01T12:58:11.876Z,40.61
2023-04-01T13:01:31.475Z,39.93
2023-04-01T13:04:41.618Z,39.47
2023-04-01T13:07:46.630Z,39.30
2023-04-01T13:10:53.360Z,39.55
2023-04-01T13:13:55.458Z,38.76
2023-04-01T13:17:03.251Z,38.62
2023-04-01T13:20:11.237Z,38.17
2023-04-01T13:23:52.024Z,38.03
2023-04-01T13:27:09.038Z,37.71
2023-04-01T13:30:48.649Z,37.89
2023-04-01T13:34:14.153Z,37.17
2023-04-01T13:37:49.323Z,36.52
2023-04-01T13:41:06.300Z,36.42
2023-04-01T13:44:24.022Z,36.32
2023-04-01T13:47:43.685Z,35.97
2023-04-01T13:51:01.146Z,35.89
2023-04-01T13:54:37.303Z,35.00
2023-04-01T13:58:16.736Z,34.85
2023-04-01T14:01:28.330Z,34.71
2023-04-01T14:04:57.483Z,34.99
2023-04-01T14:08:16.143Z,35.12
2023-04-01T14:11:29.966Z,34.93
2023-04-01T14:15:00.170Z,34.96
2023-04-01T14:18:17.213Z,35.21
2023-04-01T14:21:37.210Z,35.18
2023-04-01T14:24:46.908Z,35.44
2023-04-01T14:28:08.452Z,35.25
2023-04-01T14:31:22.386Z,35.99
2023-04-01T14:34:50.004Z,36.14
2023-04-01T14:38:16.936Z,36.20
2023-04-01T14:41:29.698Z,35.75
2023-04-01T14:44:50.071Z,35.89
2023-04-01T14:47:59.789Z,35.81
2023-04-01T14:51:35.053Z,35.34
2023-04-01T14:54:39.172Z,35.19
2023-04-01T14:57:41.311Z,35.17
2023-04-01T15:00:46.448Z,35.44
2023-04-01T15:04:09.887Z,35.68
2023-04-01T15:07:30.835Z,35.58
2023-04-01T15:10:51.136Z,35.39
2023-04-01T15:13:59.426Z,35.19
2023-04-01T15:17:11.618Z,35.57
2023-04-01T15:20:25.981Z,35.68
2023-04-01T15:23:38.327Z,35.53
2023-04-01T15:26:46.103Z,35.92
2023-04-01T15:29:48.163Z,36.60
2023-04-01T15:33:02.343Z,36.79
2023-04-01T15:36:31.052Z,36.81
2023-04-01T15:40:08.808Z,37.09
2023-04-01T15:43:28.554Z,36.84
2023-04-01T15:46:46.353Z,36.75
2023-04-01T15:50:14.461Z,36.15
2023-04-01T15:53:22.339Z,36.27
2023-04-01T15:56:30.381Z,36.35
2023-04-01T15:59:57.456Z,36.27
2023-04-01T16:03:20.872Z,36.07
2023-04-01T16:07:16.909Z,36.29
2023-04-01T16:10:27.212Z,36.06
2023-04-01T16:13:49.500Z,36.68
2023-04-01T16:17:22.402Z,36.60
2023-04-01T16:20:43.351Z,35.79
2023-04-01T16:23:57.084Z,35.24
2023-04-01T16:27:05.890Z,34.93
2023-04-01T16:30:23.518Z,34.67
2023-04-01T16:33:52.118Z,34.44
2023-04-01T16:37:15.681Z,35.32
2023-04-01T16:40:43.719Z,34.95
2023-04-01T16:43:56.465Z,35.42
2023-04-01T16:47:11.417Z,35.35
2023-04-01T16:50:22.844Z,35.92
2023-04-01T16:53:46.906Z,36.66
2023-04-01T16:56:53.406Z,37.23
2023-04-01T16:59:59.841Z,37.37
2023-04-01T17:03:01.910Z,38.04
2023-04-01T17:06:13.020Z,38.07
2023-04-01T17:09:27.351Z,38.43
2023-04-01T17:12:52.954Z,39.08
2023-04-01T17:16:09.939Z,39.00
2023-04-01T17:19:49.669Z,38.95
2023-04-01T17:23:02.718Z,39.24
2023-04-01T17:26:13.288Z,39.90
2023-04-01T17:29:18.330Z,39.63
2023-04-01T17:32:32.431Z,40.16
2023-04-01T17:35:40.759Z,40.34
2023-04-01T17:39:16.324Z,40.28
2023-04-01T17:43:00.399Z,40.46
2023-04-01T17:46:11.676Z,40.45
2023-04-01T17:49:58.494Z,40.58
2023-04-01T17:53:28.038Z,40.71
2023-04-01T17:56:53.395Z,40.76
2023-04-01T18:00:14.059Z,40.91
2023-04-01T18:03:53.960Z,40.71
2023-04-01T18:07:20.324Z,40.86
2023-04-01T18:10:50.492Z,40.75
2023-04-01T18:14:17.532Z,40.96
2023-04-01T18:17:27.097Z,40.78
2023-04-01T18:20:37.881Z,40.62
2023-04-01T18:23:59.193Z,40.99
2023-04-01T18:27:07.966Z,41.09
2023-04-01T18:30:23.493Z,40.68
2023-04-01T18:33:31.586Z,41.21
2023-04-01T18:36:52.891Z,41.33
2023-04-01T18:40:16.381Z,41.33
2023-04-01T18:44:02.278Z,41.48
2023-04-01T18:47:28.476Z,41.53
2023-04-01T18:50:48.964Z,41.65
2023-04-01T18:53:58.157Z,41.86
2023-04-01T18:57:14.039Z,41.71
2023-04-01T19:00:25.883Z,41.71
2023-04-01T19:03:48.338Z,42.17
2023-04-01T19:06:55.814Z,41.70
2023-04-01T19:10:02.236Z,41.84
2023-04-01T19:13:12.423Z,42.17
2023-04-01T19:16:44.938Z,42.22
2023-04-01T19:19:52.720Z,42.52
2023-04-01T19:23:19.865Z,42.45
2023-04-01T19:26:28.259Z,42.60
2023-04-01T19:29:49.264Z,42.64
2023-04-01T19:33:28.972Z,43.03
2023-04-01T19:36:34.686Z,43.15
2023-04-01T19:40:09.880Z,43.11
2023-04-01T19:43:31.072Z,43.57
2023-04-01T19:46:45.351Z,43.27
2023-04-01T19:50:17.114Z,43.45
2023-04-01T19:53:47.350Z,43.57
2023-04-01T19:57:06.064Z,43.59
2023-04-01T20:00:13.313Z,43.49
2023-04-01T20:03:34.326Z,43.49
2023-04-01T20:06:43.246Z,43.84
2023-04-01T20:09:51.248Z,43.57
2023-04-01T20:13:18.309Z,43.30
2023-04-01T20:16:23.544Z,43.53
2023-04-01T20:19:31.674Z,43.44
2023-04-01T20:22:46.332Z,43.53
2023-04-01T20:26:03.639Z,43.66
2023-04-01T20:29:27.504Z,43.98
2023-04-01T20:32:35.846Z,43.68
2023-04-01T20:36:17.671Z,43.85
2023-04-01T20:39:46.718Z,43.82
2023-04-01T20:43:03.659Z,44.01
2023-04-01T20:46:22.023Z,44.22
2023-04-01T20:49:50.785Z,44.20
2023-04-01T20:53:14.525Z,44.06
2023-04-01T20:56:34.172Z,44.07
2023-04-01T20:59:36.316Z,44.18
2023-04-01T21:02:59.735Z,44.41
2023-04-01T21:06:27.747Z,44.56
2023-04-01T21:09:47.298Z,44.78
2023-04-01T21:13:02.361Z,44.70
2023-04-01T21:16:16.464Z,44.87
2023-04-01T21:19:52.432Z,44.90
2023-04-01T21:23:09.690Z,44.96
2023-04-01T21:26:20.674Z,45.01
2023-04-01T21:29:41.656Z,45.26
2023-04-01T21:33:05.033Z,45.55
2023-04-01T21:36:32.977Z,45.58
2023-04-01T21:39:53.216Z,45.45
2023-04-01T21:43:20.093Z,45.26
2023-04-01T21:47:02.982Z,45.81
2023-04-01T21:50:26.708Z,46.09
2023-04-01T21:54:07.385Z,46.14
2023-04-01T21:57:12.410Z,46.04
2023-04-01T22:00:21.196Z,46.13
2023-04-01T22:03:45.466Z,46.16
2023-04-01T22:06:49.856Z,46.31
2023-04-01T22:09:59.451Z,45.53
2023-04-01T22:13:09.326Z,45.76
2023-04-01T22:16:38.342Z,45.53
2023-04-01T22:19:51.798Z,45.54
2023-04-01T22:23:00.581Z,45.54
2023-04-01T22:26:07.692Z,45.43
2023-04-01T22:29:51.839Z,45.04
2023-04-01T22:33:01.262Z,45.23
2023-04-01T22:36:12.890Z,45.06
2023-04-01T22:39:27.091Z,45.11
2023-04-01T22:42:42.968Z,44.99
2023-04-01T22:46:30.154Z,45.38
2023-04-01T22:49:43.370Z,45.66
2023-04-01T22:52:52.916Z,45.39
2023-04-01T22:55:58.486Z,45.71
2023-04-01T22:59:20.348Z,45.56
2023-04-01T23:02:27.157Z,46.16
2023-04-01T23:05:29.885Z,46.24
2023-04-01T23:08:43.435Z,46.25
2023-04-01T23:11:50.088Z,46.16
2023-04-01T23:14:54.929Z,45.73
2023-04-01T23:18:20.885Z,45.76
2023-04-01T23:21:29.019Z,46.25
2023-04-01T23:24:53.608Z,45.91
2023-04-01T23:28:15.474Z,45.86
2023-04-01T23:31:28.661Z,46.05
2023-04-01T23:34:36.173Z,46.38
2023-04-01T23:37:38.306Z,46.11
2023-04-01T23:40:41.459Z,46.31
2023-04-01T23:43:44.833Z,46.73
2023-04-01T23:46:47.792Z,46.55
2023-04-01T23:49:56.433Z,46.97
2023-04-01T23:53:04.256Z,46.96
2023-04-01T23:56:06.724Z,47.20
2023-04-01T23:59:19.208Z,47.28
